Latest Conditions
At L.F.Wade Int. Airport
Recorded at 2:55 am
Partly Cloudy
Temp.: 
27°C/80°F
Humidity: 
86%
Wind: 
SSW 8KT
or 9mph
UV Index: 
N/A
Island Observations
Observations
Thursday, September 29, 2016

Observations are in local time and taken at least once an hour, or upon the start and end of specified events such as showers and thunderstorms.

Time Sky / Weather Wind Speed/Gusts Temp. R.H. Pressure
     knots (mph)  °C (°F)  %  mb / "Hg
 02:55 Partly Cloudy  SSW 8/0 (9/0) 27(80) 86 1022 / 30.18
 01:55 Few Clouds  S 9/0 (10/0) 27(80) 85 1022 / 30.18
 00:55 Few Clouds  S 10/0 (12/0) 27(80) 82 1022 / 30.19
 23:55 Partly Cloudy  S 9/0 (10/0) 27(80) 83 1022 / 30.19
 22:55 Partly Cloudy  S 9/0 (10/0) 27(81) 85 1022 / 30.18
 21:55 Mostly Cloudy  S 8/0 (9/0) 27(81) 84 1022 / 30.18
 20:55 Mostly Cloudy  S 8/0 (9/0) 27(81) 84 1022 / 30.17
 19:55 Mostly Cloudy  S 10/0 (12/0) 27(81) 82 1021 / 30.15
 18:55 Mostly Cloudy  S 9/0 (10/0) 28(82) 81 1021 / 30.14
 17:55 Mostly Cloudy  SSW 13/0 (15/0) 28(83) 78 1021 / 30.14
 16:55 Mostly Cloudy  S 12/0 (14/0) 28(83) 78 1021 / 30.14
 15:55 Mostly Cloudy  S 15/0 (17/0) 29(84) 76 1020 / 30.13
 14:55 Mostly Cloudy  SSW 16/0 (18/0) 29(84) 75 1021 / 30.14
 13:55 Mostly Cloudy  S 14/0 (16/0) 29(84) 76 1021 / 30.15
 12:55 Mostly Cloudy  S 13/0 (15/0) 28(83) 77 1021 / 30.14
 11:55 Mostly Cloudy  S 15/0 (17/0) 28(83) 77 1021 / 30.14
 10:55 Mostly Cloudy  S 13/0 (15/0) 28(82) 78 1021 / 30.15
 09:55 Mostly Cloudy  S 12/0 (14/0) 28(82) 79 1021 / 30.15
 08:55 Mostly Cloudy  S 11/0 (13/0) 27(80) 78 1021 / 30.14
 07:55 Mostly Cloudy  SSW 12/0 (14/0) 27(80) 81 1021 / 30.14
 07:10 Mostly Cloudy  S 13/0 (15/0) 26(79) 82 1020 / 30.12
 06:55 Mostly Cloudy Showers SSE 13/0 (15/0) 26(79) 88 1020 / 30.13
 06:44 Mostly Cloudy Showers SE 13/0 (15/0) 26(78) 87 1020 / 30.12
 05:55 Overcast Thunderstorm S 11/0 (13/0) 24(76) 88 1020 / 30.11
Observations from our AWOS sites are available here (password and username are both 'guest').